Time,TemperatureF,DewpointF,PressureIn,WindDirection,WindDirectionDegrees,WindSpeedMPH,WindSpeedGustMPH,Humidity,HourlyPrecipIn,Conditions,Clouds,dailyrainin,SoftwareType,DateUTC
2013-10-02 00:01:00,49.2,48.7,29.82,SW,234,0.0,0.0,98,0.00,,---,0.00,VWS V13.01,2013-10-02 04:01:00,
2013-10-02 00:02:00,49.2,48.7,29.82,SW,234,0.0,0.0,98,0.00,,---,0.00,VWS V13.01,2013-10-02 04:02:00,
2013-10-02 00:03:00,49.2,48.7,29.82,SW,234,0.0,0.0,98,0.00,,---,0.00,VWS V13.01,2013-10-02 04:03:00,
2013-10-02 00:05:00,49.0,48.2,29.82,SW,234,0.0,0.0,97,0.00,,---,0.00,VWS V13.01,2013-10-02 04:05:00,
2013-10-02 00:10:00,48.8,48.0,29.83,SW,233,0.0,1.0,97,0.00,,---,0.00,VWS V13.01,2013-10-02 04:10:00,
2013-10-02 00:15:00,48.9,48.1,29.83,SW,233,0.0,1.0,97,0.00,,---,0.00,VWS V13.01,2013-10-02 04:15:00,
2013-10-02 00:16:00,48.8,48.0,29.83,SW,234,0.0,1.0,97,0.00,,---,0.00,VWS V13.01,2013-10-02 04:16:00,
2013-10-02 00:21:00,49.0,48.5,29.83,SW,234,0.0,1.0,98,0.00,,---,0.00,VWS V13.01,2013-10-02 04:21:00,
2013-10-02 00:27:00,48.6,48.1,29.83,SW,234,0.0,1.0,98,0.00,,---,0.00,VWS V13.01,2013-10-02 04:27:00,
2013-10-02 00:32:00,48.6,48.1,29.83,SW,234,0.0,0.0,98,0.00,,---,0.00,VWS V13.01,2013-10-02 04:32:00,
2013-10-02 00:37:00,48.6,48.1,29.83,SW,234,0.0,0.0,98,0.00,,---,0.00,VWS V13.01,2013-10-02 04:37:00,
2013-10-02 00:42:00,48.5,48.0,29.83,SW,233,0.0,0.0,98,0.00,,---,0.00,VWS V13.01,2013-10-02 04:42:00,
2013-10-02 00:47:00,48.4,47.9,29.83,SW,234,0.0,0.0,98,0.00,,---,0.00,VWS V13.01,2013-10-02 04:47:00,
2013-10-02 00:52:00,48.6,48.1,29.83,SW,233,0.0,0.0,98,0.00,,---,0.00,VWS V13.01,2013-10-02 04:52:00,
2013-10-02 00:58:00,48.7,48.2,29.83,SW,234,0.0,0.0,98,0.00,,---,0.00,VWS V13.01,2013-10-02 04:58:00,
2013-10-02 01:03:00,48.6,48.1,29.84,SW,234,0.0,0.0,98,0.00,,---,0.00,VWS V13.01,2013-10-02 05:03:00,
2013-10-02 01:08:00,48.2,47.7,29.84,SW,234,0.0,0.0,98,0.00,,---,0.00,VWS V13.01,2013-10-02 05:08:00,
2013-10-02 01:13:00,48.1,47.6,29.84,SW,233,0.0,0.0,98,0.00,,---,0.00,VWS V13.01,2013-10-02 05:13:00,
2013-10-02 01:18:00,48.1,47.6,29.84,SW,234,0.0,0.0,98,0.00,,---,0.00,VWS V13.01,2013-10-02 05:18:00,
2013-10-02 01:23:00,48.3,47.8,29.84,SW,233,0.0,0.0,98,0.00,,---,0.00,VWS V13.01,2013-10-02 05:23:00,
2013-10-02 01:28:00,48.1,47.6,29.85,SW,233,0.0,0.0,98,0.00,,---,0.00,VWS V13.01,2013-10-02 05:28:00,
2013-10-02 01:33:00,47.8,47.3,29.85,SW,234,0.0,0.0,98,0.00,,---,0.00,VWS V13.01,2013-10-02 05:33:00,
2013-10-02 01:38:00,47.8,47.3,29.85,SW,234,0.0,0.0,98,0.00,,---,0.00,VWS V13.01,2013-10-02 05:38:00,
2013-10-02 01:43:00,47.9,47.4,29.86,SW,234,0.0,0.0,98,0.00,,---,0.00,VWS V13.01,2013-10-02 05:43:00,
2013-10-02 01:48:00,48.1,47.6,29.85,SW,233,0.0,0.0,98,0.00,,---,0.00,VWS V13.01,2013-10-02 05:48:00,
2013-10-02 01:54:00,48.1,47.6,29.86,SW,234,0.0,0.0,98,0.00,,---,0.00,VWS V13.01,2013-10-02 05:54:00,
2013-10-02 01:59:00,48.2,47.7,29.86,SW,234,0.0,0.0,98,0.00,,---,0.00,VWS V13.01,2013-10-02 05:59:00,
2013-10-02 02:04:00,48.4,47.9,29.86,SW,233,0.0,1.0,98,0.00,,---,0.00,VWS V13.01,2013-10-02 06:04:00,
2013-10-02 02:09:00,48.7,48.2,29.86,SW,234,0.0,1.0,98,0.00,,---,0.00,VWS V13.01,2013-10-02 06:09:00,
2013-10-02 02:14:00,48.8,48.3,29.86,SW,234,0.0,1.0,98,0.00,,---,0.00,VWS V13.01,2013-10-02 06:14:00,
2013-10-02 02:19:00,48.9,48.4,29.86,SW,233,0.0,1.0,98,0.00,,---,0.00,VWS V13.01,2013-10-02 06:19:00,
2013-10-02 02:24:00,48.9,48.4,29.86,SW,233,0.0,1.0,98,0.00,,---,0.00,VWS V13.01,2013-10-02 06:24:00,
2013-10-02 02:29:00,48.8,48.3,29.86,SW,234,0.0,2.0,98,0.00,,---,0.00,VWS V13.01,2013-10-02 06:29:00,
2013-10-02 02:34:00,48.7,48.2,29.86,SW,233,0.0,0.0,98,0.00,,---,0.00,VWS V13.01,2013-10-02 06:34:00,
2013-10-02 02:39:00,48.6,48.1,29.85,SW,234,0.0,0.0,98,0.00,,---,0.00,VWS V13.01,2013-10-02 06:39:00,
2013-10-02 02:45:00,48.7,48.2,29.85,SW,234,0.0,0.0,98,0.00,,---,0.00,VWS V13.01,2013-10-02 06:45:00,
2013-10-02 02:50:00,48.8,48.3,29.85,SW,233,0.0,0.0,98,0.00,,---,0.00,VWS V13.01,2013-10-02 06:50:00,
2013-10-02 02:55:00,48.8,48.3,29.86,SW,233,1.0,2.0,98,0.00,,---,0.00,VWS V13.01,2013-10-02 06:55:00,
2013-10-02 03:00:00,48.5,48.0,29.85,SW,234,0.0,0.0,98,0.00,,---,0.00,VWS V13.01,2013-10-02 07:00:00,
2013-10-02 03:05:00,48.6,48.1,29.85,SW,233,0.0,1.0,98,0.00,,---,0.00,VWS V13.01,2013-10-02 07:05:00,
2013-10-02 03:10:00,48.5,48.0,29.85,SW,233,0.0,1.0,98,0.00,,---,0.00,VWS V13.01,2013-10-02 07:10:00,
2013-10-02 03:15:00,48.4,47.9,29.85,SW,234,0.0,1.0,98,0.00,,---,0.00,VWS V13.01,2013-10-02 07:15:00,
2013-10-02 03:20:00,48.2,47.7,29.85,SW,234,1.0,1.0,98,0.00,,---,0.00,VWS V13.01,2013-10-02 07:20:00,
2013-10-02 03:25:00,47.7,47.2,29.85,SW,234,0.0,1.0,98,0.00,,---,0.00,VWS V13.01,2013-10-02 07:25:00,
2013-10-02 03:30:00,47.5,47.0,29.85,SW,233,0.0,0.0,98,0.00,,---,0.00,VWS V13.01,2013-10-02 07:30:00,
2013-10-02 03:36:00,47.4,46.9,29.85,SW,233,0.0,0.0,98,0.00,,---,0.00,VWS V13.01,2013-10-02 07:36:00,
2013-10-02 03:41:00,47.1,46.6,29.85,SW,234,0.0,0.0,98,0.00,,---,0.00,VWS V13.01,2013-10-02 07:41:00,
2013-10-02 03:46:00,47.1,46.6,29.85,SW,234,0.0,0.0,98,0.00,,---,0.00,VWS V13.01,2013-10-02 07:46:00,
2013-10-02 03:51:00,47.4,46.9,29.85,SW,234,0.0,1.0,98,0.00,,---,0.00,VWS V13.01,2013-10-02 07:51:00,
2013-10-02 03:56:00,47.7,47.2,29.85,SW,233,0.0,1.0,98,0.00,,---,0.00,VWS V13.01,2013-10-02 07:56:00,
2013-10-02 04:01:00,47.9,47.6,29.85,SW,234,0.0,0.0,99,0.00,,---,0.00,VWS V13.01,2013-10-02 08:01:00,
2013-10-02 04:06:00,48.2,47.7,29.85,SW,233,0.0,0.0,98,0.00,,---,0.00,VWS V13.01,2013-10-02 08:06:00,
2013-10-02 04:11:00,48.4,48.1,29.85,SW,233,0.0,0.0,99,0.00,,---,0.00,VWS V13.01,2013-10-02 08:11:00,
2013-10-02 04:16:00,48.3,48.0,29.85,SW,234,0.0,0.0,99,0.00,,---,0.00,VWS V13.01,2013-10-02 08:16:00,
2013-10-02 04:21:00,48.1,47.6,29.85,SW,234,0.0,0.0,98,0.00,,---,0.00,VWS V13.01,2013-10-02 08:21:00,
2013-10-02 04:26:00,47.9,47.6,29.85,SW,233,0.0,0.0,99,0.00,,---,0.00,VWS V13.01,2013-10-02 08:26:00,
2013-10-02 04:31:00,47.7,47.2,29.85,SW,234,0.0,0.0,98,0.00,,---,0.00,VWS V13.01,2013-10-02 08:31:00,
2013-10-02 04:36:00,47.4,46.9,29.85,SW,234,0.0,0.0,98,0.00,,---,0.00,VWS V13.01,2013-10-02 08:36:00,
2013-10-02 04:41:00,47.2,46.7,29.85,SW,234,0.0,0.0,98,0.00,,---,0.00,VWS V13.01,2013-10-02 08:41:00,
2013-10-02 04:47:00,47.1,46.6,29.85,SW,234,0.0,0.0,98,0.00,,---,0.00,VWS V13.01,2013-10-02 08:47:00,
2013-10-02 04:52:00,46.9,46.4,29.86,SW,233,0.0,1.0,98,0.00,,---,0.00,VWS V13.01,2013-10-02 08:52:00,
2013-10-02 04:57:00,47.2,46.9,29.86,SW,234,0.0,1.0,99,0.00,,---,0.00,VWS V13.01,2013-10-02 08:57:00,
2013-10-02 05:02:00,47.3,47.0,29.86,SW,234,0.0,0.0,99,0.00,,---,0.00,VWS V13.01,2013-10-02 09:02:00,
2013-10-02 05:07:00,47.5,47.0,29.86,SW,234,0.0,0.0,98,0.00,,---,0.00,VWS V13.01,2013-10-02 09:07:00,
2013-10-02 05:12:00,47.6,47.1,29.86,SW,234,0.0,1.0,98,0.00,,---,0.00,VWS V13.01,2013-10-02 09:12:00,
2013-10-02 05:17:00,47.7,47.2,29.86,SW,234,0.0,1.0,98,0.00,,---,0.00,VWS V13.01,2013-10-02 09:17:00,
2013-10-02 05:22:00,47.8,47.5,29.86,SW,234,0.0,1.0,99,0.00,,---,0.00,VWS V13.01,2013-10-02 09:22:00,
2013-10-02 05:27:00,47.8,47.5,29.86,SW,234,0.0,1.0,99,0.00,,---,0.00,VWS V13.01,2013-10-02 09:27:00,
2013-10-02 05:32:00,47.9,47.6,29.87,SW,233,0.0,0.0,99,0.00,,---,0.00,VWS V13.01,2013-10-02 09:32:00,
2013-10-02 05:37:00,48.0,47.7,29.87,SW,233,0.0,0.0,99,0.00,,---,0.00,VWS V13.01,2013-10-02 09:37:00,
2013-10-02 05:42:00,48.1,47.8,29.87,SW,234,0.0,0.0,99,0.00,,---,0.00,VWS V13.01,2013-10-02 09:42:00,
2013-10-02 05:47:00,48.2,47.9,29.87,SW,233,0.0,0.0,99,0.00,,---,0.00,VWS V13.01,2013-10-02 09:47:00,
2013-10-02 05:52:00,48.2,47.9,29.87,SW,233,0.0,0.0,99,0.00,,---,0.00,VWS V13.01,2013-10-02 09:52:00,
2013-10-02 05:57:00,48.2,47.9,29.88,SW,234,0.0,0.0,99,0.00,,---,0.00,VWS V13.01,2013-10-02 09:57:00,
2013-10-02 06:03:00,48.3,48.0,29.88,SW,233,0.0,0.0,99,0.00,,---,0.00,VWS V13.01,2013-10-02 10:03:00,
2013-10-02 06:08:00,48.2,47.9,29.87,SW,233,0.0,0.0,99,0.00,,---,0.00,VWS V13.01,2013-10-02 10:08:00,
2013-10-02 06:13:00,48.2,47.9,29.87,SW,234,0.0,0.0,99,0.00,,---,0.00,VWS V13.01,2013-10-02 10:13:00,
2013-10-02 06:18:00,48.3,48.0,29.88,SW,233,0.0,0.0,99,0.00,,---,0.00,VWS V13.01,2013-10-02 10:18:00,
2013-10-02 06:23:00,48.5,48.2,29.88,SW,234,0.0,0.0,99,0.00,,---,0.00,VWS V13.01,2013-10-02 10:23:00,
2013-10-02 06:28:00,48.7,48.4,29.88,SW,234,0.0,0.0,99,0.00,,---,0.00,VWS V13.01,2013-10-02 10:28:00,
2013-10-02 06:33:00,48.9,48.6,29.87,SW,233,0.0,0.0,99,0.00,,---,0.00,VWS V13.01,2013-10-02 10:33:00,
2013-10-02 06:38:00,49.1,48.8,29.87,SW,233,0.0,0.0,99,0.00,,---,0.00,VWS V13.01,2013-10-02 10:38:00,
2013-10-02 06:43:00,49.2,48.9,29.87,SW,234,0.0,0.0,99,0.00,,---,0.00,VWS V13.01,2013-10-02 10:43:00,
2013-10-02 06:48:00,49.2,48.9,29.87,SW,234,0.0,1.0,99,0.00,,---,0.00,VWS V13.01,2013-10-02 10:48:00,
2013-10-02 06:53:00,49.2,48.9,29.87,SW,233,0.0,1.0,99,0.00,,---,0.00,VWS V13.01,2013-10-02 10:53:00,
2013-10-02 06:58:00,49.2,48.9,29.87,SW,233,0.0,1.0,99,0.00,,---,0.00,VWS V13.01,2013-10-02 10:58:00,
2013-10-02 07:03:00,49.0,48.7,29.87,SW,233,0.0,0.0,99,0.00,,---,0.00,VWS V13.01,2013-10-02 11:03:00,
2013-10-02 07:09:00,48.8,48.5,29.87,SW,233,0.0,0.0,99,0.00,,---,0.00,VWS V13.01,2013-10-02 11:09:00,
2013-10-02 07:14:00,48.8,48.5,29.87,SW,234,0.0,0.0,99,0.00,,---,0.00,VWS V13.01,2013-10-02 11:14:00,
2013-10-02 07:19:00,48.9,48.6,29.87,SW,234,0.0,0.0,99,0.00,,---,0.00,VWS V13.01,2013-10-02 11:19:00,
2013-10-02 07:24:00,49.0,48.7,29.87,SW,234,0.0,0.0,99,0.00,,---,0.00,VWS V13.01,2013-10-02 11:24:00,
2013-10-02 07:29:00,49.0,48.7,29.88,SW,233,0.0,0.0,99,0.00,,---,0.00,VWS V13.01,2013-10-02 11:29:00,
2013-10-02 07:34:00,49.1,48.8,29.88,SW,234,0.0,0.0,99,0.00,,---,0.00,VWS V13.01,2013-10-02 11:34:00,
2013-10-02 07:39:00,49.1,48.8,29.88,SW,234,0.0,0.0,99,0.00,,---,0.00,VWS V13.01,2013-10-02 11:39:00,
2013-10-02 07:44:00,49.1,48.8,29.88,SW,234,0.0,0.0,99,0.00,,---,0.00,VWS V13.01,2013-10-02 11:44:00,
2013-10-02 07:49:00,49.2,48.9,29.89,SW,234,0.0,0.0,99,0.00,,---,0.00,VWS V13.01,2013-10-02 11:49:00,
2013-10-02 07:54:00,49.4,49.1,29.89,SW,234,0.0,0.0,99,0.00,,---,0.00,VWS V13.01,2013-10-02 11:54:00,
2013-10-02 07:59:00,49.7,49.4,29.89,SW,234,0.0,0.0,99,0.00,,---,0.00,VWS V13.01,2013-10-02 11:59:00,
2013-10-02 08:04:00,50.0,49.7,29.89,SW,234,0.0,0.0,99,0.00,,---,0.00,VWS V13.01,2013-10-02 12:04:00,
2013-10-02 08:09:00,50.3,50.0,29.89,SW,234,0.0,0.0,99,0.00,,---,0.00,VWS V13.01,2013-10-02 12:09:00,
2013-10-02 08:15:00,50.6,50.3,29.89,SW,233,0.0,0.0,99,0.00,,---,0.00,VWS V13.01,2013-10-02 12:15:00,
2013-10-02 08:20:00,51.0,50.7,29.89,SW,233,0.0,0.0,99,0.00,,---,0.00,VWS V13.01,2013-10-02 12:20:00,
2013-10-02 08:25:00,51.2,50.9,29.90,SW,234,0.0,0.0,99,0.00,,---,0.00,VWS V13.01,2013-10-02 12:25:00,
2013-10-02 08:30:00,51.4,51.1,29.90,SW,233,0.0,0.0,99,0.00,,---,0.00,VWS V13.01,2013-10-02 12:30:00,
2013-10-02 08:35:00,51.7,51.4,29.90,SW,234,0.0,0.0,99,0.00,,---,0.00,VWS V13.01,2013-10-02 12:35:00,
2013-10-02 08:40:00,52.3,52.0,29.90,SW,233,0.0,0.0,99,0.00,,---,0.00,VWS V13.01,2013-10-02 12:40:00,
2013-10-02 08:45:00,52.6,52.3,29.90,SW,233,0.0,0.0,99,0.00,,---,0.00,VWS V13.01,2013-10-02 12:45:00,
2013-10-02 08:50:00,52.8,52.5,29.90,SW,234,0.0,0.0,99,0.00,,---,0.00,VWS V13.01,2013-10-02 12:50:00,
2013-10-02 08:55:00,53.1,52.8,29.90,SW,233,0.0,0.0,99,0.00,,---,0.00,VWS V13.01,2013-10-02 12:55:00,
2013-10-02 09:00:00,53.4,53.1,29.90,SW,234,0.0,0.0,99,0.00,,---,0.00,VWS V13.01,2013-10-02 13:00:00,
2013-10-02 09:05:00,53.8,53.5,29.90,SW,234,0.0,0.0,99,0.00,,---,0.00,VWS V13.01,2013-10-02 13:05:00,
2013-10-02 09:10:00,54.2,53.9,29.91,SW,233,0.0,0.0,99,0.00,,---,0.00,VWS V13.01,2013-10-02 13:10:00,
2013-10-02 09:15:00,54.6,54.3,29.91,SW,234,0.0,0.0,99,0.00,,---,0.00,VWS V13.01,2013-10-02 13:15:00,
2013-10-02 09:20:00,54.9,54.6,29.91,SW,233,0.0,0.0,99,0.00,,---,0.00,VWS V13.01,2013-10-02 13:20:00,
2013-10-02 09:25:00,55.2,55.2,29.91,SW,233,0.0,0.0,100,0.00,,---,0.00,VWS V13.01,2013-10-02 13:25:00,
2013-10-02 09:30:00,55.6,55.3,29.91,SW,234,0.0,0.0,99,0.00,,---,0.00,VWS V13.01,2013-10-02 13:30:00,
2013-10-02 09:36:00,56.3,56.0,29.91,SW,233,0.0,0.0,99,0.00,,---,0.00,VWS V13.01,2013-10-02 13:36:00,
2013-10-02 09:41:00,57.2,57.2,29.91,SW,234,0.0,1.0,100,0.00,,---,0.00,VWS V13.01,2013-10-02 13:41:00,
2013-10-02 09:46:00,57.8,57.8,29.91,SW,234,0.0,1.0,100,0.00,,---,0.00,VWS V13.01,2013-10-02 13:46:00,
2013-10-02 09:51:00,58.2,58.2,29.91,SW,234,0.0,1.0,100,0.00,,---,0.00,VWS V13.01,2013-10-02 13:51:00,
2013-10-02 09:56:00,58.6,58.6,29.91,SW,234,0.0,1.0,100,0.00,,---,0.00,VWS V13.01,2013-10-02 13:56:00,
2013-10-02 10:01:00,58.8,58.8,29.91,SW,234,0.0,0.0,100,0.00,,---,0.00,VWS V13.01,2013-10-02 14:01:00,
2013-10-02 10:06:00,59.0,59.0,29.91,SW,234,0.0,1.0,100,0.00,,---,0.00,VWS V13.01,2013-10-02 14:06:00,
2013-10-02 10:11:00,59.3,59.3,29.91,SW,234,0.0,1.0,100,0.00,,---,0.00,VWS V13.01,2013-10-02 14:11:00,
2013-10-02 10:16:00,59.9,59.9,29.91,SW,234,0.0,1.0,100,0.00,,---,0.00,VWS V13.01,2013-10-02 14:16:00,
2013-10-02 10:21:00,60.2,60.2,29.91,SW,234,0.0,1.0,100,0.00,,---,0.00,VWS V13.01,2013-10-02 14:21:00,
2013-10-02 10:26:00,60.5,60.5,29.91,SW,234,0.0,1.0,100,0.00,,---,0.00,VWS V13.01,2013-10-02 14:26:00,
2013-10-02 10:31:00,60.9,60.9,29.90,SW,234,0.0,0.0,100,0.00,,---,0.00,VWS V13.01,2013-10-02 14:31:00,
2013-10-02 10:36:00,61.4,61.4,29.91,SW,234,0.0,0.0,100,0.00,,---,0.00,VWS V13.01,2013-10-02 14:36:00,
2013-10-02 10:41:00,61.8,61.8,29.90,SW,234,0.0,4.0,100,0.00,,---,0.00,VWS V13.01,2013-10-02 14:41:00,
2013-10-02 10:46:00,62.2,62.2,29.90,SW,234,0.0,4.0,100,0.00,,---,0.00,VWS V13.01,2013-10-02 14:46:00,
2013-10-02 10:51:00,62.8,62.8,29.90,West,261,2.0,6.0,100,0.00,,---,0.00,VWS V13.01,2013-10-02 14:51:00,
2013-10-02 10:56:00,63.3,63.3,29.90,WSW,254,4.0,8.0,100,0.00,,---,0.00,VWS V13.01,2013-10-02 14:56:00,
2013-10-02 11:02:00,63.9,63.9,29.89,SW,229,9.0,9.0,100,0.00,,---,0.00,VWS V13.01,2013-10-02 15:02:00,
2013-10-02 11:07:00,64.3,64.0,29.89,WSW,248,5.0,10.0,99,0.00,,---,0.00,VWS V13.01,2013-10-02 15:07:00,
2013-10-02 11:12:00,64.7,64.4,29.89,West,262,4.0,10.0,99,0.00,,---,0.00,VWS V13.01,2013-10-02 15:12:00,
2013-10-02 11:17:00,65.3,64.1,29.89,West,276,4.0,10.0,96,0.00,,---,0.00,VWS V13.01,2013-10-02 15:17:00,
2013-10-02 11:22:00,65.7,63.6,29.89,WSW,243,0.0,10.0,93,0.00,,---,0.00,VWS V13.01,2013-10-02 15:22:00,
2013-10-02 11:27:00,66.2,63.5,29.89,WNW,295,8.0,10.0,91,0.00,,---,0.00,VWS V13.01,2013-10-02 15:27:00,
2013-10-02 11:32:00,66.5,63.5,29.89,WNW,288,0.0,3.0,90,0.00,,---,0.00,VWS V13.01,2013-10-02 15:32:00,
2013-10-02 11:33:00,66.6,63.6,29.89,West,276,6.0,6.0,90,0.00,,---,0.00,VWS V13.01,2013-10-02 15:33:00,
2013-10-02 11:38:00,66.8,63.5,29.90,WSW,249,3.0,11.0,89,0.00,,---,0.00,VWS V13.01,2013-10-02 15:38:00,
2013-10-02 11:43:00,66.9,63.2,29.89,West,271,6.0,11.0,88,0.00,,---,0.00,VWS V13.01,2013-10-02 15:43:00,
2013-10-02 11:49:00,67.0,63.3,29.89,WSW,244,4.0,11.0,88,0.00,,---,0.00,VWS V13.01,2013-10-02 15:49:00,
2013-10-02 11:54:00,67.3,63.6,29.90,West,273,6.0,11.0,88,0.00,,---,0.00,VWS V13.01,2013-10-02 15:54:00,
2013-10-02 11:59:00,67.3,63.3,29.90,West,279,6.0,11.0,87,0.00,,---,0.00,VWS V13.01,2013-10-02 15:59:00,
2013-10-02 12:04:00,67.1,63.1,29.90,West,277,6.0,9.0,87,0.00,,---,0.00,VWS V13.01,2013-10-02 16:04:00,
2013-10-02 12:09:00,67.3,63.6,29.90,West,268,7.0,9.0,88,0.00,,---,0.00,VWS V13.01,2013-10-02 16:09:00,
2013-10-02 12:14:00,67.4,63.4,29.90,NW,307,0.0,10.0,87,0.00,,---,0.00,VWS V13.01,2013-10-02 16:14:00,
2013-10-02 12:19:00,67.9,64.2,29.90,West,275,7.0,10.0,88,0.00,,---,0.00,VWS V13.01,2013-10-02 16:19:00,
2013-10-02 12:24:00,68.1,64.1,29.90,WSW,256,9.0,11.0,87,0.00,,---,0.00,VWS V13.01,2013-10-02 16:24:00,
2013-10-02 12:29:00,68.0,63.7,29.90,West,270,6.0,11.0,86,0.00,,---,0.00,VWS V13.01,2013-10-02 16:29:00,
2013-10-02 12:34:00,68.0,63.7,29.90,WNW,284,6.0,11.0,86,0.00,,---,0.00,VWS V13.01,2013-10-02 16:34:00,
2013-10-02 12:39:00,68.0,63.3,29.90,WNW,286,5.0,11.0,85,0.00,,---,0.00,VWS V13.01,2013-10-02 16:39:00,
2013-10-02 12:44:00,68.3,64.0,29.90,WNW,287,5.0,11.0,86,0.00,,---,0.00,VWS V13.01,2013-10-02 16:44:00,
2013-10-02 12:49:00,68.5,64.2,29.90,West,269,0.0,11.0,86,0.00,,---,0.00,VWS V13.01,2013-10-02 16:49:00,
2013-10-02 12:54:00,68.5,64.2,29.90,WSW,253,8.0,11.0,86,0.00,,---,0.00,VWS V13.01,2013-10-02 16:54:00,
2013-10-02 12:59:00,68.7,64.3,29.90,West,259,5.0,11.0,86,0.00,,---,0.00,VWS V13.01,2013-10-02 16:59:00,
2013-10-02 13:04:00,68.9,64.2,29.90,West,261,5.0,10.0,85,0.00,,---,0.00,VWS V13.01,2013-10-02 17:04:00,
2013-10-02 13:09:00,68.7,64.0,29.90,West,263,7.0,11.0,85,0.00,,---,0.00,VWS V13.01,2013-10-02 17:09:00,
2013-10-02 13:14:00,68.9,64.2,29.90,West,267,9.0,13.0,85,0.00,,---,0.00,VWS V13.01,2013-10-02 17:14:00,
2013-10-02 13:20:00,69.3,64.3,29.89,WNW,295,6.0,13.0,84,0.00,,---,0.00,VWS V13.01,2013-10-02 17:20:00,
2013-10-02 13:25:00,69.6,65.2,29.89,West,268,4.0,13.0,86,0.00,,---,0.00,VWS V13.01,2013-10-02 17:25:00,
2013-10-02 13:30:00,70.0,64.9,29.89,West,265,1.0,13.0,84,0.00,,---,0.00,VWS V13.01,2013-10-02 17:30:00,
2013-10-02 13:35:00,70.5,65.1,29.89,WNW,295,5.0,12.0,83,0.00,,---,0.00,VWS V13.01,2013-10-02 17:35:00,
2013-10-02 13:40:00,70.6,64.8,29.89,West,261,9.0,13.0,82,0.00,,---,0.00,VWS V13.01,2013-10-02 17:40:00,
2013-10-02 13:45:00,70.4,65.0,29.89,WSW,257,6.0,13.0,83,0.00,,---,0.00,VWS V13.01,2013-10-02 17:45:00,
2013-10-02 13:50:00,70.2,64.8,29.89,West,279,6.0,13.0,83,0.00,,---,0.00,VWS V13.01,2013-10-02 17:50:00,
2013-10-02 13:55:00,70.2,64.4,29.88,West,268,7.0,13.0,82,0.00,,---,0.00,VWS V13.01,2013-10-02 17:55:00,
2013-10-02 14:00:00,70.3,64.9,29.88,West,276,6.0,7.0,83,0.00,,---,0.00,VWS V13.01,2013-10-02 18:00:00,
2013-10-02 14:05:00,70.6,64.8,29.88,WSW,239,7.0,10.0,82,0.00,,---,0.00,VWS V13.01,2013-10-02 18:05:00,
2013-10-02 14:10:00,70.8,64.7,29.88,WSW,250,9.0,11.0,81,0.00,,---,0.00,VWS V13.01,2013-10-02 18:10:00,
2013-10-02 14:15:00,71.0,65.6,29.88,WSW,246,6.0,12.0,83,0.00,,---,0.00,VWS V13.01,2013-10-02 18:15:00,
2013-10-02 14:20:00,71.3,65.2,29.87,SW,230,1.0,12.0,81,0.00,,---,0.00,VWS V13.01,2013-10-02 18:20:00,
2013-10-02 14:25:00,72.1,65.6,29.87,West,267,5.0,12.0,80,0.00,,---,0.00,VWS V13.01,2013-10-02 18:25:00,
2013-10-02 14:30:00,72.9,66.0,29.87,WSW,240,9.0,10.0,79,0.00,,---,0.00,VWS V13.01,2013-10-02 18:30:00,
2013-10-02 14:36:00,73.2,65.9,29.87,WSW,252,7.0,11.0,78,0.00,,---,0.00,VWS V13.01,2013-10-02 18:36:00,
2013-10-02 14:41:00,73.5,66.2,29.87,West,264,8.0,11.0,78,0.00,,---,0.00,VWS V13.01,2013-10-02 18:41:00,
2013-10-02 14:46:00,73.2,65.2,29.87,West,277,7.0,11.0,76,0.00,,---,0.00,VWS V13.01,2013-10-02 18:46:00,
2013-10-02 14:51:00,73.0,64.6,29.86,WNW,288,5.0,11.0,75,0.00,,---,0.00,VWS V13.01,2013-10-02 18:51:00,
2013-10-02 14:56:00,72.9,64.9,29.86,WNW,296,6.0,12.0,76,0.00,,---,0.00,VWS V13.01,2013-10-02 18:56:00,
2013-10-02 15:01:00,73.0,65.0,29.86,WNW,302,7.0,9.0,76,0.00,,---,0.00,VWS V13.01,2013-10-02 19:01:00,
2013-10-02 15:06:00,73.1,64.3,29.86,West,280,6.0,10.0,74,0.00,,---,0.00,VWS V13.01,2013-10-02 19:06:00,
2013-10-02 15:11:00,73.7,66.1,29.86,WNW,283,13.0,13.0,77,0.00,,---,0.00,VWS V13.01,2013-10-02 19:11:00,
2013-10-02 15:16:00,74.0,64.4,29.86,WSW,249,6.0,13.0,72,0.00,,---,0.00,VWS V13.01,2013-10-02 19:16:00,
2013-10-02 15:21:00,74.4,65.2,29.86,West,265,9.0,13.0,73,0.00,,---,0.00,VWS V13.01,2013-10-02 19:21:00,
2013-10-02 15:26:00,74.9,65.7,29.86,WSW,254,7.0,13.0,73,0.00,,---,0.00,VWS V13.01,2013-10-02 19:26:00,
2013-10-02 15:31:00,75.0,64.6,29.86,WSW,252,7.0,14.0,70,0.00,,---,0.00,VWS V13.01,2013-10-02 19:31:00,
2013-10-02 15:36:00,75.7,64.8,29.86,WNW,285,6.0,14.0,69,0.00,,---,0.00,VWS V13.01,2013-10-02 19:36:00,
2013-10-02 15:41:00,75.9,64.6,29.85,WSW,257,13.0,16.0,68,0.00,,---,0.00,VWS V13.01,2013-10-02 19:41:00,
2013-10-02 15:47:00,76.0,64.3,29.86,WSW,252,11.0,16.0,67,0.00,,---,0.00,VWS V13.01,2013-10-02 19:47:00,
2013-10-02 15:52:00,75.5,64.6,29.86,WSW,256,9.0,16.0,69,0.00,,---,0.00,VWS V13.01,2013-10-02 19:52:00,
2013-10-02 15:57:00,75.7,64.4,29.86,WSW,254,8.0,16.0,68,0.00,,---,0.00,VWS V13.01,2013-10-02 19:57:00,
2013-10-02 16:02:00,76.0,63.8,29.86,WSW,252,11.0,14.0,66,0.00,,---,0.00,VWS V13.01,2013-10-02 20:02:00,
2013-10-02 16:07:00,76.0,63.4,29.86,SW,234,10.0,14.0,65,0.00,,---,0.00,VWS V13.01,2013-10-02 20:07:00,
2013-10-02 16:12:00,75.9,63.7,29.85,WSW,240,7.0,14.0,66,0.00,,---,0.00,VWS V13.01,2013-10-02 20:12:00,
2013-10-02 16:17:00,76.0,63.8,29.86,West,269,10.0,14.0,66,0.00,,---,0.00,VWS V13.01,2013-10-02 20:17:00,
2013-10-02 16:22:00,75.5,62.5,29.85,West,271,6.0,14.0,64,0.00,,---,0.00,VWS V13.01,2013-10-02 20:22:00,
2013-10-02 16:27:00,75.6,63.5,29.85,West,273,7.0,14.0,66,0.00,,---,0.00,VWS V13.01,2013-10-02 20:27:00,
2013-10-02 16:32:00,76.2,62.2,29.85,West,279,8.0,10.0,62,0.00,,---,0.00,VWS V13.01,2013-10-02 20:32:00,
2013-10-02 16:37:00,76.3,62.8,29.85,West,273,8.0,10.0,63,0.00,,---,0.00,VWS V13.01,2013-10-02 20:37:00,
2013-10-02 16:43:00,76.2,62.7,29.85,NW,311,5.0,13.0,63,0.00,,---,0.00,VWS V13.01,2013-10-02 20:43:00,
2013-10-02 16:48:00,76.1,62.6,29.85,West,280,3.0,13.0,63,0.00,,---,0.00,VWS V13.01,2013-10-02 20:48:00,
2013-10-02 16:53:00,74.9,61.5,29.85,West,281,0.0,13.0,63,0.00,,---,0.00,VWS V13.01,2013-10-02 20:53:00,
2013-10-02 16:58:00,74.6,61.6,29.85,WNW,283,2.0,13.0,64,0.00,,---,0.00,VWS V13.01,2013-10-02 20:58:00,
2013-10-02 17:03:00,74.9,61.9,29.85,WNW,298,8.0,9.0,64,0.00,,---,0.00,VWS V13.01,2013-10-02 21:03:00,
2013-10-02 17:08:00,75.0,62.5,29.86,NW,313,10.0,10.0,65,0.00,,---,0.00,VWS V13.01,2013-10-02 21:08:00,
2013-10-02 17:13:00,74.8,61.8,29.86,WNW,284,1.0,10.0,64,0.00,,---,0.00,VWS V13.01,2013-10-02 21:13:00,
2013-10-02 17:18:00,75.0,61.6,29.86,WNW,296,1.0,10.0,63,0.00,,---,0.00,VWS V13.01,2013-10-02 21:18:00,
2013-10-02 17:23:00,75.1,60.8,29.86,WNW,303,2.0,10.0,61,0.00,,---,0.00,VWS V13.01,2013-10-02 21:23:00,
2013-10-02 17:28:00,75.1,61.7,29.86,WNW,296,0.0,10.0,63,0.00,,---,0.00,VWS V13.01,2013-10-02 21:28:00,
2013-10-02 17:33:00,75.4,61.5,29.86,NW,317,1.0,4.0,62,0.00,,---,0.00,VWS V13.01,2013-10-02 21:33:00,
2013-10-02 17:38:00,75.4,60.6,29.86,NW,306,4.0,6.0,60,0.00,,---,0.00,VWS V13.01,2013-10-02 21:38:00,
2013-10-02 17:43:00,74.9,60.6,29.87,North,350,4.0,8.0,61,0.00,,---,0.00,VWS V13.01,2013-10-02 21:43:00,
2013-10-02 17:48:00,74.6,59.8,29.87,NW,316,4.0,8.0,60,0.00,,---,0.00,VWS V13.01,2013-10-02 21:48:00,
2013-10-02 17:54:00,74.4,60.1,29.87,NW,317,1.0,8.0,61,0.00,,---,0.00,VWS V13.01,2013-10-02 21:54:00,
2013-10-02 17:59:00,74.1,59.8,29.87,NW,317,0.0,8.0,61,0.00,,---,0.00,VWS V13.01,2013-10-02 21:59:00,
2013-10-02 18:04:00,73.4,60.0,29.87,NW,309,0.0,6.0,63,0.00,,---,0.00,VWS V13.01,2013-10-02 22:04:00,
2013-10-02 18:09:00,72.7,60.7,29.87,NW,305,2.0,6.0,66,0.00,,---,0.00,VWS V13.01,2013-10-02 22:09:00,
2013-10-02 18:14:00,71.4,60.3,29.87,WSW,256,0.0,8.0,68,0.00,,---,0.00,VWS V13.01,2013-10-02 22:14:00,
2013-10-02 18:19:00,70.5,60.7,29.88,WSW,257,4.0,8.0,71,0.00,,---,0.00,VWS V13.01,2013-10-02 22:19:00,
2013-10-02 18:24:00,69.6,60.6,29.88,WSW,257,2.0,8.0,73,0.00,,---,0.00,VWS V13.01,2013-10-02 22:24:00,
2013-10-02 18:29:00,69.0,60.0,29.88,WSW,256,0.0,8.0,73,0.00,,---,0.00,VWS V13.01,2013-10-02 22:29:00,
2013-10-02 18:34:00,68.5,60.3,29.88,WSW,257,0.0,4.0,75,0.00,,---,0.00,VWS V13.01,2013-10-02 22:34:00,
2013-10-02 18:39:00,67.9,59.7,29.88,WSW,257,2.0,4.0,75,0.00,,---,0.00,VWS V13.01,2013-10-02 22:39:00,
2013-10-02 18:44:00,66.8,59.0,29.88,WSW,256,1.0,4.0,76,0.00,,---,0.00,VWS V13.01,2013-10-02 22:44:00,
2013-10-02 18:49:00,65.9,59.2,29.89,WSW,257,0.0,4.0,79,0.00,,---,0.00,VWS V13.01,2013-10-02 22:49:00,
2013-10-02 18:54:00,65.2,58.9,29.89,WSW,256,0.0,4.0,80,0.00,,---,0.00,VWS V13.01,2013-10-02 22:54:00,
2013-10-02 18:59:00,64.6,58.7,29.89,WSW,256,0.0,4.0,81,0.00,,---,0.00,VWS V13.01,2013-10-02 22:59:00,
2013-10-02 19:04:00,63.7,58.1,29.89,WSW,257,0.0,0.0,82,0.00,,---,0.00,VWS V13.01,2013-10-02 23:04:00,
2013-10-02 19:10:00,62.8,57.9,29.89,WSW,256,0.0,0.0,84,0.00,,---,0.00,VWS V13.01,2013-10-02 23:10:00,
2013-10-02 19:15:00,61.9,57.3,29.90,WSW,256,0.0,0.0,85,0.00,,---,0.00,VWS V13.01,2013-10-02 23:15:00,
2013-10-02 19:20:00,61.2,57.0,29.90,WSW,257,0.0,0.0,86,0.00,,---,0.00,VWS V13.01,2013-10-02 23:20:00,
2013-10-02 19:25:00,60.6,56.7,29.90,WSW,256,0.0,0.0,87,0.00,,---,0.00,VWS V13.01,2013-10-02 23:25:00,
2013-10-02 19:30:00,59.8,56.2,29.90,WSW,256,0.0,0.0,88,0.00,,---,0.00,VWS V13.01,2013-10-02 23:30:00,
2013-10-02 19:35:00,59.0,55.5,29.90,WSW,257,0.0,0.0,88,0.00,,---,0.00,VWS V13.01,2013-10-02 23:35:00,
2013-10-02 19:40:00,58.4,55.2,29.90,WSW,257,0.0,0.0,89,0.00,,---,0.00,VWS V13.01,2013-10-02 23:40:00,
2013-10-02 19:45:00,58.1,55.5,29.91,WSW,257,1.0,3.0,91,0.00,,---,0.00,VWS V13.01,2013-10-02 23:45:00,
2013-10-02 19:50:00,57.5,54.9,29.91,WSW,256,0.0,3.0,91,0.00,,---,0.00,VWS V13.01,2013-10-02 23:50:00,
2013-10-02 19:51:00,57.5,54.9,29.91,WSW,257,0.0,3.0,91,0.00,,---,0.00,VWS V13.01,2013-10-02 23:51:00,
2013-10-02 19:56:00,57.1,54.8,29.91,WSW,257,1.0,3.0,92,0.00,,---,0.00,VWS V13.01,2013-10-02 23:56:00,
2013-10-02 20:01:00,56.7,54.4,29.91,WSW,257,0.0,0.0,92,0.00,,---,0.00,VWS V13.01,2013-10-03 00:01:00,
2013-10-02 20:06:00,56.2,54.2,29.92,WSW,256,0.0,0.0,93,0.00,,---,0.00,VWS V13.01,2013-10-03 00:06:00,
2013-10-02 20:11:00,55.8,53.8,29.92,WSW,257,0.0,0.0,93,0.00,,---,0.00,VWS V13.01,2013-10-03 00:11:00,
2013-10-02 20:16:00,55.5,53.5,29.92,WSW,257,0.0,0.0,93,0.00,,---,0.00,VWS V13.01,2013-10-03 00:16:00,
2013-10-02 20:21:00,54.4,52.1,29.92,WSW,256,0.0,0.0,92,0.00,,---,0.00,VWS V13.01,2013-10-03 00:21:00,
2013-10-02 20:26:00,54.0,52.0,29.92,WSW,256,0.0,0.0,93,0.00,,---,0.00,VWS V13.01,2013-10-03 00:26:00,
2013-10-02 20:32:00,53.7,52.0,29.92,WSW,256,0.0,0.0,94,0.00,,---,0.00,VWS V13.01,2013-10-03 00:32:00,
2013-10-02 20:37:00,53.4,51.7,29.92,WSW,257,0.0,0.0,94,0.00,,---,0.00,VWS V13.01,2013-10-03 00:37:00,
2013-10-02 20:42:00,53.0,51.3,29.92,WSW,257,0.0,0.0,94,0.00,,---,0.00,VWS V13.01,2013-10-03 00:42:00,
2013-10-02 20:47:00,52.7,51.0,29.93,WSW,257,0.0,0.0,94,0.00,,---,0.00,VWS V13.01,2013-10-03 00:47:00,
2013-10-02 20:52:00,52.4,51.0,29.92,WSW,257,0.0,0.0,95,0.00,,---,0.00,VWS V13.01,2013-10-03 00:52:00,
2013-10-02 20:57:00,52.1,50.7,29.92,WSW,257,0.0,0.0,95,0.00,,---,0.00,VWS V13.01,2013-10-03 00:57:00,
2013-10-02 21:02:00,52.3,51.2,29.93,WSW,257,0.0,0.0,96,0.00,,---,0.00,VWS V13.01,2013-10-03 01:02:00,
2013-10-02 21:07:00,52.1,51.0,29.93,WSW,257,0.0,0.0,96,0.00,,---,0.00,VWS V13.01,2013-10-03 01:07:00,
2013-10-02 21:12:00,51.8,50.4,29.93,WSW,257,0.0,0.0,95,0.00,,---,0.00,VWS V13.01,2013-10-03 01:12:00,
2013-10-02 21:17:00,51.1,49.7,29.93,WSW,257,0.0,0.0,95,0.00,,---,0.00,VWS V13.01,2013-10-03 01:17:00,
2013-10-02 21:22:00,50.4,49.0,29.93,WSW,256,0.0,0.0,95,0.00,,---,0.00,VWS V13.01,2013-10-03 01:22:00,
2013-10-02 21:28:00,50.0,48.6,29.93,WSW,257,0.0,0.0,95,0.00,,---,0.00,VWS V13.01,2013-10-03 01:28:00,
2013-10-02 21:33:00,49.7,48.6,29.93,WSW,257,0.0,0.0,96,0.00,,---,0.00,VWS V13.01,2013-10-03 01:33:00,
2013-10-02 21:38:00,49.8,48.7,29.93,WSW,257,0.0,0.0,96,0.00,,---,0.00,VWS V13.01,2013-10-03 01:38:00,
2013-10-02 21:43:00,49.8,48.7,29.93,WSW,257,0.0,0.0,96,0.00,,---,0.00,VWS V13.01,2013-10-03 01:43:00,
2013-10-02 21:48:00,49.9,48.8,29.94,WSW,257,0.0,0.0,96,0.00,,---,0.00,VWS V13.01,2013-10-03 01:48:00,
2013-10-02 21:53:00,49.9,48.8,29.94,WSW,257,0.0,0.0,96,0.00,,---,0.00,VWS V13.01,2013-10-03 01:53:00,
2013-10-02 21:58:00,49.0,47.9,29.94,WSW,257,0.0,0.0,96,0.00,,---,0.00,VWS V13.01,2013-10-03 01:58:00,
2013-10-02 22:04:00,48.3,47.2,29.94,WSW,257,0.0,0.0,96,0.00,,---,0.00,VWS V13.01,2013-10-03 02:04:00,
2013-10-02 22:09:00,48.1,47.0,29.94,WSW,257,0.0,0.0,96,0.00,,---,0.00,VWS V13.01,2013-10-03 02:09:00,
2013-10-02 22:11:00,48.1,47.3,29.94,WSW,257,0.0,0.0,97,0.00,,---,0.00,VWS V13.01,2013-10-03 02:11:00,
2013-10-02 22:16:00,48.1,47.3,29.94,WSW,257,0.0,0.0,97,0.00,,---,0.00,VWS V13.01,2013-10-03 02:16:00,
2013-10-02 22:21:00,48.2,47.4,29.94,WSW,257,0.0,0.0,97,0.00,,---,0.00,VWS V13.01,2013-10-03 02:21:00,
2013-10-02 22:27:00,48.1,47.3,29.94,WSW,256,0.0,0.0,97,0.00,,---,0.00,VWS V13.01,2013-10-03 02:27:00,
2013-10-02 22:32:00,47.9,47.1,29.95,WSW,257,0.0,0.0,97,0.00,,---,0.00,VWS V13.01,2013-10-03 02:32:00,
2013-10-02 22:37:00,47.9,47.1,29.95,WSW,257,0.0,0.0,97,0.00,,---,0.00,VWS V13.01,2013-10-03 02:37:00,
2013-10-02 22:42:00,47.8,47.0,29.95,WSW,256,0.0,0.0,97,0.00,,---,0.00,VWS V13.01,2013-10-03 02:42:00,
2013-10-02 22:47:00,47.7,46.9,29.96,WSW,256,0.0,0.0,97,0.00,,---,0.00,VWS V13.01,2013-10-03 02:47:00,
2013-10-02 22:52:00,47.7,46.9,29.96,WSW,257,0.0,0.0,97,0.00,,---,0.00,VWS V13.01,2013-10-03 02:52:00,
2013-10-02 22:57:00,47.7,46.9,29.95,WSW,257,0.0,0.0,97,0.00,,---,0.00,VWS V13.01,2013-10-03 02:57:00,
2013-10-02 23:02:00,47.8,47.0,29.96,WSW,257,0.0,0.0,97,0.00,,---,0.00,VWS V13.01,2013-10-03 03:02:00,
2013-10-02 23:08:00,47.8,47.0,29.96,WSW,257,0.0,0.0,97,0.00,,---,0.00,VWS V13.01,2013-10-03 03:08:00,
2013-10-02 23:13:00,47.9,47.1,29.96,WSW,257,0.0,0.0,97,0.00,,---,0.00,VWS V13.01,2013-10-03 03:13:00,
2013-10-02 23:18:00,47.8,47.0,29.96,WSW,257,0.0,0.0,97,0.00,,---,0.00,VWS V13.01,2013-10-03 03:18:00,
2013-10-02 23:23:00,47.8,47.0,29.97,WSW,257,0.0,0.0,97,0.00,,---,0.00,VWS V13.01,2013-10-03 03:23:00,
2013-10-02 23:28:00,47.9,47.1,29.97,WSW,256,0.0,0.0,97,0.00,,---,0.00,VWS V13.01,2013-10-03 03:28:00,
2013-10-02 23:34:00,48.0,47.5,29.97,WSW,257,0.0,0.0,98,0.00,,---,0.00,VWS V13.01,2013-10-03 03:34:00,
2013-10-02 23:39:00,48.1,47.6,29.97,WSW,256,0.0,0.0,98,0.00,,---,0.00,VWS V13.01,2013-10-03 03:39:00,
2013-10-02 23:44:00,48.2,47.7,29.97,WSW,257,0.0,0.0,98,0.00,,---,0.00,VWS V13.01,2013-10-03 03:44:00,
2013-10-02 23:49:00,48.2,47.7,29.97,WSW,257,0.0,1.0,98,0.00,,---,0.00,VWS V13.01,2013-10-03 03:49:00,
2013-10-02 23:54:00,48.3,47.8,29.98,WSW,257,0.0,1.0,98,0.00,,---,0.00,VWS V13.01,2013-10-03 03:54:00,